sensor_id;sensor_type;location;lat;lon;timestamp;temperature;humidity
16879;DHT22;8556;52.218;9.884;2023-07-02T00:00:47;16.20;99.90
16879;DHT22;8556;52.218;9.884;2023-07-02T00:03:16;16.10;99.90
16879;DHT22;8556;52.218;9.884;2023-07-02T00:05:47;16.20;99.90
16879;DHT22;8556;52.218;9.884;2023-07-02T00:08:17;16.10;99.90
16879;DHT22;8556;52.218;9.884;2023-07-02T00:10:43;16.10;99.90
16879;DHT22;8556;52.218;9.884;2023-07-02T00:13:10;16.10;99.90
16879;DHT22;8556;52.218;9.884;2023-07-02T00:15:37;16.10;99.90
16879;DHT22;8556;52.218;9.884;2023-07-02T00:18:04;16.10;99.90
16879;DHT22;8556;52.218;9.884;2023-07-02T00:20:31;16.10;99.90
16879;DHT22;8556;52.218;9.884;2023-07-02T00:23:00;16.00;99.90
16879;DHT22;8556;52.218;9.884;2023-07-02T00:25:29;15.90;99.90
16879;DHT22;8556;52.218;9.884;2023-07-02T00:27:55;16.00;99.90
16879;DHT22;8556;52.218;9.884;2023-07-02T00:30:22;15.90;99.90
16879;DHT22;8556;52.218;9.884;2023-07-02T00:32:49;16.00;99.90
16879;DHT22;8556;52.218;9.884;2023-07-02T00:35:16;15.90;99.90
16879;DHT22;8556;52.218;9.884;2023-07-02T00:37:43;15.80;99.90
16879;DHT22;8556;52.218;9.884;2023-07-02T00:40:10;15.90;99.90
16879;DHT22;8556;52.218;9.884;2023-07-02T00:42:38;15.80;99.90
16879;DHT22;8556;52.218;9.884;2023-07-02T00:45:06;15.70;99.90
16879;DHT22;8556;52.218;9.884;2023-07-02T00:47:34;15.60;99.90
16879;DHT22;8556;52.218;9.884;2023-07-02T00:50:02;15.70;99.90
16879;DHT22;8556;52.218;9.884;2023-07-02T00:52:29;15.60;99.90
16879;DHT22;8556;52.218;9.884;2023-07-02T00:54:55;15.60;99.90
16879;DHT22;8556;52.218;9.884;2023-07-02T00:57:22;15.50;99.90
16879;DHT22;8556;52.218;9.884;2023-07-02T00:59:56;15.60;99.90
16879;DHT22;8556;52.218;9.884;2023-07-02T01:02:26;15.50;99.90
16879;DHT22;8556;52.218;9.884;2023-07-02T01:04:55;15.50;99.90
16879;DHT22;8556;52.218;9.884;2023-07-02T01:07:24;15.70;99.90
16879;DHT22;8556;52.218;9.884;2023-07-02T01:09:51;15.60;99.90
16879;DHT22;8556;52.218;9.884;2023-07-02T01:12:18;15.60;99.90
16879;DHT22;8556;52.218;9.884;2023-07-02T01:14:48;15.50;99.90
16879;DHT22;8556;52.218;9.884;2023-07-02T01:17:18;15.40;99.90
16879;DHT22;8556;52.218;9.884;2023-07-02T01:19:49;15.30;99.90
16879;DHT22;8556;52.218;9.884;2023-07-02T01:22:19;15.40;99.90
16879;DHT22;8556;52.218;9.884;2023-07-02T01:24:46;15.30;99.90
16879;DHT22;8556;52.218;9.884;2023-07-02T01:27:14;15.20;99.90
16879;DHT22;8556;52.218;9.884;2023-07-02T01:29:42;15.20;99.90
16879;DHT22;8556;52.218;9.884;2023-07-02T01:32:10;15.20;99.90
16879;DHT22;8556;52.218;9.884;2023-07-02T01:34:37;15.20;99.90
16879;DHT22;8556;52.218;9.884;2023-07-02T01:37:06;15.10;99.90
16879;DHT22;8556;52.218;9.884;2023-07-02T01:39:34;15.10;99.90
16879;DHT22;8556;52.218;9.884;2023-07-02T01:42:08;15.10;99.90
16879;DHT22;8556;52.218;9.884;2023-07-02T01:44:37;15.00;99.90
16879;DHT22;8556;52.218;9.884;2023-07-02T01:47:04;14.90;99.90
16879;DHT22;8556;52.218;9.884;2023-07-02T01:49:31;14.80;99.90
16879;DHT22;8556;52.218;9.884;2023-07-02T01:51:58;14.80;99.90
16879;DHT22;8556;52.218;9.884;2023-07-02T01:54:27;14.70;99.90
16879;DHT22;8556;52.218;9.884;2023-07-02T01:56:54;14.60;99.90
16879;DHT22;8556;52.218;9.884;2023-07-02T01:59:21;14.60;99.90
16879;DHT22;8556;52.218;9.884;2023-07-02T02:01:48;14.60;99.90
16879;DHT22;8556;52.218;9.884;2023-07-02T02:04:15;14.50;99.90
16879;DHT22;8556;52.218;9.884;2023-07-02T02:06:42;14.50;99.90
16879;DHT22;8556;52.218;9.884;2023-07-02T02:09:09;14.60;99.90
16879;DHT22;8556;52.218;9.884;2023-07-02T02:11:39;14.70;99.90
16879;DHT22;8556;52.218;9.884;2023-07-02T02:14:07;14.70;99.90
16879;DHT22;8556;52.218;9.884;2023-07-02T02:16:33;14.70;99.90
16879;DHT22;8556;52.218;9.884;2023-07-02T02:19:00;14.70;99.90
16879;DHT22;8556;52.218;9.884;2023-07-02T02:21:28;14.70;99.90
16879;DHT22;8556;52.218;9.884;2023-07-02T02:23:55;14.80;99.90
16879;DHT22;8556;52.218;9.884;2023-07-02T02:26:23;14.80;99.90
16879;DHT22;8556;52.218;9.884;2023-07-02T02:28:52;14.80;99.90
16879;DHT22;8556;52.218;9.884;2023-07-02T02:31:19;14.90;99.90
16879;DHT22;8556;52.218;9.884;2023-07-02T02:33:45;14.80;99.90
16879;DHT22;8556;52.218;9.884;2023-07-02T02:36:12;14.80;99.90
16879;DHT22;8556;52.218;9.884;2023-07-02T02:38:39;15.00;99.90
16879;DHT22;8556;52.218;9.884;2023-07-02T02:41:06;15.00;99.90
16879;DHT22;8556;52.218;9.884;2023-07-02T02:43:34;15.10;99.90
16879;DHT22;8556;52.218;9.884;2023-07-02T02:46:02;15.10;99.90
16879;DHT22;8556;52.218;9.884;2023-07-02T02:48:29;15.10;99.90
16879;DHT22;8556;52.218;9.884;2023-07-02T02:50:56;15.10;99.90
16879;DHT22;8556;52.218;9.884;2023-07-02T02:53:23;15.10;99.90
16879;DHT22;8556;52.218;9.884;2023-07-02T02:55:50;15.20;99.90
16879;DHT22;8556;52.218;9.884;2023-07-02T02:58:16;15.20;99.90
16879;DHT22;8556;52.218;9.884;2023-07-02T03:00:43;15.10;99.90
16879;DHT22;8556;52.218;9.884;2023-07-02T03:03:13;15.10;99.90
16879;DHT22;8556;52.218;9.884;2023-07-02T03:05:40;15.10;99.90
16879;DHT22;8556;52.218;9.884;2023-07-02T03:08:07;15.10;99.90
16879;DHT22;8556;52.218;9.884;2023-07-02T03:10:33;15.10;99.90
16879;DHT22;8556;52.218;9.884;2023-07-02T03:13:00;15.10;99.90
16879;DHT22;8556;52.218;9.884;2023-07-02T03:15:28;15.10;99.90
16879;DHT22;8556;52.218;9.884;2023-07-02T03:17:54;15.10;99.90
16879;DHT22;8556;52.218;9.884;2023-07-02T03:20:22;15.20;99.90
16879;DHT22;8556;52.218;9.884;2023-07-02T03:22:49;15.20;99.90
16879;DHT22;8556;52.218;9.884;2023-07-02T03:25:17;15.20;99.90
16879;DHT22;8556;52.218;9.884;2023-07-02T03:27:44;15.20;99.90
16879;DHT22;8556;52.218;9.884;2023-07-02T03:30:11;15.20;99.90
16879;DHT22;8556;52.218;9.884;2023-07-02T03:32:39;15.10;99.90
16879;DHT22;8556;52.218;9.884;2023-07-02T03:35:06;15.10;99.90
16879;DHT22;8556;52.218;9.884;2023-07-02T03:37:35;15.10;99.90
16879;DHT22;8556;52.218;9.884;2023-07-02T03:40:02;15.10;99.90
16879;DHT22;8556;52.218;9.884;2023-07-02T03:42:29;15.10;99.90
16879;DHT22;8556;52.218;9.884;2023-07-02T03:44:56;15.20;99.90
16879;DHT22;8556;52.218;9.884;2023-07-02T03:47:23;15.20;99.90
16879;DHT22;8556;52.218;9.884;2023-07-02T03:49:50;15.30;99.90
16879;DHT22;8556;52.218;9.884;2023-07-02T03:52:16;15.30;99.90
16879;DHT22;8556;52.218;9.884;2023-07-02T03:54:45;15.30;99.90
16879;DHT22;8556;52.218;9.884;2023-07-02T03:57:11;15.40;99.90
16879;DHT22;8556;52.218;9.884;2023-07-02T03:59:38;15.40;99.90
16879;DHT22;8556;52.218;9.884;2023-07-02T04:02:05;15.40;99.90
16879;DHT22;8556;52.218;9.884;2023-07-02T04:04:32;15.40;99.90
16879;DHT22;8556;52.218;9.884;2023-07-02T04:06:59;15.40;99.90
16879;DHT22;8556;52.218;9.884;2023-07-02T04:09:25;15.50;99.90
16879;DHT22;8556;52.218;9.884;2023-07-02T04:11:54;15.50;99.90
16879;DHT22;8556;52.218;9.884;2023-07-02T04:14:20;15.70;99.90
16879;DHT22;8556;52.218;9.884;2023-07-02T04:16:47;15.60;99.90
16879;DHT22;8556;52.218;9.884;2023-07-02T04:19:14;15.50;99.90
16879;DHT22;8556;52.218;9.884;2023-07-02T04:21:41;15.70;99.90
16879;DHT22;8556;52.218;9.884;2023-07-02T04:24:08;15.60;99.90
16879;DHT22;8556;52.218;9.884;2023-07-02T04:26:34;15.60;99.90
16879;DHT22;8556;52.218;9.884;2023-07-02T04:29:03;15.60;99.90
16879;DHT22;8556;52.218;9.884;2023-07-02T04:31:30;15.60;99.90
16879;DHT22;8556;52.218;9.884;2023-07-02T04:33:57;15.50;99.90
16879;DHT22;8556;52.218;9.884;2023-07-02T04:36:25;15.60;99.90
16879;DHT22;8556;52.218;9.884;2023-07-02T04:38:52;15.60;99.90
16879;DHT22;8556;52.218;9.884;2023-07-02T04:41:19;15.60;99.90
16879;DHT22;8556;52.218;9.884;2023-07-02T04:43:46;15.60;99.90
16879;DHT22;8556;52.218;9.884;2023-07-02T04:46:15;15.70;99.90
16879;DHT22;8556;52.218;9.884;2023-07-02T04:48:43;15.70;99.90
16879;DHT22;8556;52.218;9.884;2023-07-02T04:51:10;15.60;99.90
16879;DHT22;8556;52.218;9.884;2023-07-02T04:53:37;15.60;99.90
16879;DHT22;8556;52.218;9.884;2023-07-02T04:56:04;15.30;99.90
16879;DHT22;8556;52.218;9.884;2023-07-02T04:58:31;15.00;99.90
16879;DHT22;8556;52.218;9.884;2023-07-02T05:00:58;14.80;99.90
16879;DHT22;8556;52.218;9.884;2023-07-02T05:03:27;14.70;99.90
16879;DHT22;8556;52.218;9.884;2023-07-02T05:05:54;14.50;99.90
16879;DHT22;8556;52.218;9.884;2023-07-02T05:08:20;14.30;99.90
16879;DHT22;8556;52.218;9.884;2023-07-02T05:10:47;14.20;99.90
16879;DHT22;8556;52.218;9.884;2023-07-02T05:13:14;14.10;99.90
16879;DHT22;8556;52.218;9.884;2023-07-02T05:15:41;14.10;99.90
16879;DHT22;8556;52.218;9.884;2023-07-02T05:18:08;13.90;99.90
16879;DHT22;8556;52.218;9.884;2023-07-02T05:20:36;14.00;99.90
16879;DHT22;8556;52.218;9.884;2023-07-02T05:23:03;13.90;99.90
16879;DHT22;8556;52.218;9.884;2023-07-02T05:25:30;13.90;99.90
16879;DHT22;8556;52.218;9.884;2023-07-02T05:27:58;13.90;99.90
16879;DHT22;8556;52.218;9.884;2023-07-02T05:30:24;13.90;99.90
16879;DHT22;8556;52.218;9.884;2023-07-02T05:32:51;13.80;99.90
16879;DHT22;8556;52.218;9.884;2023-07-02T05:35:18;13.70;99.90
16879;DHT22;8556;52.218;9.884;2023-07-02T05:37:46;13.90;99.90
16879;DHT22;8556;52.218;9.884;2023-07-02T05:40:13;13.80;99.90
16879;DHT22;8556;52.218;9.884;2023-07-02T05:42:40;13.90;99.90
16879;DHT22;8556;52.218;9.884;2023-07-02T05:45:09;14.00;99.90
16879;DHT22;8556;52.218;9.884;2023-07-02T05:47:36;14.00;99.90
16879;DHT22;8556;52.218;9.884;2023-07-02T05:50:03;14.00;99.90
16879;DHT22;8556;52.218;9.884;2023-07-02T05:52:30;14.00;99.90
16879;DHT22;8556;52.218;9.884;2023-07-02T05:54:59;14.10;99.90
16879;DHT22;8556;52.218;9.884;2023-07-02T05:57:26;14.10;99.90
16879;DHT22;8556;52.218;9.884;2023-07-02T05:59:52;14.10;99.90
16879;DHT22;8556;52.218;9.884;2023-07-02T06:02:19;14.20;99.90
16879;DHT22;8556;52.218;9.884;2023-07-02T06:04:46;14.30;99.90
16879;DHT22;8556;52.218;9.884;2023-07-02T06:07:13;14.60;99.90
16879;DHT22;8556;52.218;9.884;2023-07-02T06:09:40;14.60;99.90
16879;DHT22;8556;52.218;9.884;2023-07-02T06:12:09;14.80;99.90
16879;DHT22;8556;52.218;9.884;2023-07-02T06:14:36;15.00;99.90
16879;DHT22;8556;52.218;9.884;2023-07-02T06:17:03;15.20;99.90
16879;DHT22;8556;52.218;9.884;2023-07-02T06:19:32;15.30;99.90
16879;DHT22;8556;52.218;9.884;2023-07-02T06:21:59;15.40;99.90
16879;DHT22;8556;52.218;9.884;2023-07-02T06:24:26;15.40;99.90
16879;DHT22;8556;52.218;9.884;2023-07-02T06:26:52;15.40;99.90
16879;DHT22;8556;52.218;9.884;2023-07-02T06:29:22;15.60;99.90
16879;DHT22;8556;52.218;9.884;2023-07-02T06:31:49;15.60;99.90
16879;DHT22;8556;52.218;9.884;2023-07-02T06:34:16;15.70;99.90
16879;DHT22;8556;52.218;9.884;2023-07-02T06:36:43;15.70;99.90
16879;DHT22;8556;52.218;9.884;2023-07-02T06:39:10;15.90;99.90
16879;DHT22;8556;52.218;9.884;2023-07-02T06:41:37;16.10;99.90
16879;DHT22;8556;52.218;9.884;2023-07-02T06:44:04;16.10;99.90
16879;DHT22;8556;52.218;9.884;2023-07-02T06:46:32;16.20;99.90
16879;DHT22;8556;52.218;9.884;2023-07-02T06:48:59;16.20;99.90
16879;DHT22;8556;52.218;9.884;2023-07-02T06:51:26;16.30;99.90
16879;DHT22;8556;52.218;9.884;2023-07-02T06:53:54;16.30;99.90
16879;DHT22;8556;52.218;9.884;2023-07-02T06:56:21;16.60;99.90
16879;DHT22;8556;52.218;9.884;2023-07-02T06:58:48;16.70;99.90
16879;DHT22;8556;52.218;9.884;2023-07-02T07:01:15;16.70;99.90
16879;DHT22;8556;52.218;9.884;2023-07-02T07:03:43;16.70;99.90
16879;DHT22;8556;52.218;9.884;2023-07-02T07:06:11;16.70;99.90
16879;DHT22;8556;52.218;9.884;2023-07-02T07:08:38;16.70;99.90
16879;DHT22;8556;52.218;9.884;2023-07-02T07:11:08;16.80;99.90
16879;DHT22;8556;52.218;9.884;2023-07-02T07:13:35;16.80;99.90
16879;DHT22;8556;52.218;9.884;2023-07-02T07:16:02;16.80;99.90
16879;DHT22;8556;52.218;9.884;2023-07-02T07:18:29;16.90;99.90
16879;DHT22;8556;52.218;9.884;2023-07-02T07:20:57;17.00;99.90
16879;DHT22;8556;52.218;9.884;2023-07-02T07:23:24;16.90;99.90
16879;DHT22;8556;52.218;9.884;2023-07-02T07:25:50;17.00;99.90
16879;DHT22;8556;52.218;9.884;2023-07-02T07:28:17;16.90;99.90
16879;DHT22;8556;52.218;9.884;2023-07-02T07:30:44;17.00;99.90
16879;DHT22;8556;52.218;9.884;2023-07-02T07:33:11;17.10;99.90
16879;DHT22;8556;52.218;9.884;2023-07-02T07:35:38;17.10;99.90
16879;DHT22;8556;52.218;9.884;2023-07-02T07:38:06;17.20;99.90
16879;DHT22;8556;52.218;9.884;2023-07-02T07:40:33;17.20;99.90
16879;DHT22;8556;52.218;9.884;2023-07-02T07:43:00;17.10;99.90
16879;DHT22;8556;52.218;9.884;2023-07-02T07:45:27;17.10;99.90
16879;DHT22;8556;52.218;9.884;2023-07-02T07:47:53;17.20;99.90
16879;DHT22;8556;52.218;9.884;2023-07-02T07:50:20;17.10;99.90
16879;DHT22;8556;52.218;9.884;2023-07-02T07:52:48;17.30;99.90
16879;DHT22;8556;52.218;9.884;2023-07-02T07:55:16;17.30;99.90
16879;DHT22;8556;52.218;9.884;2023-07-02T07:57:43;17.40;99.90
16879;DHT22;8556;52.218;9.884;2023-07-02T08:00:10;17.50;99.90
16879;DHT22;8556;52.218;9.884;2023-07-02T08:02:37;17.50;99.90
16879;DHT22;8556;52.218;9.884;2023-07-02T08:05:05;17.40;99.90
16879;DHT22;8556;52.218;9.884;2023-07-02T08:07:32;17.50;99.90
16879;DHT22;8556;52.218;9.884;2023-07-02T08:09:59;17.60;99.90
16879;DHT22;8556;52.218;9.884;2023-07-02T08:12:29;17.90;99.90
16879;DHT22;8556;52.218;9.884;2023-07-02T08:14:56;17.70;99.90
16879;DHT22;8556;52.218;9.884;2023-07-02T08:17:23;17.90;99.90
16879;DHT22;8556;52.218;9.884;2023-07-02T08:19:49;18.00;99.90
16879;DHT22;8556;52.218;9.884;2023-07-02T08:22:16;18.10;99.90
16879;DHT22;8556;52.218;9.884;2023-07-02T08:24:43;18.10;99.90
16879;DHT22;8556;52.218;9.884;2023-07-02T08:27:10;18.10;99.90
16879;DHT22;8556;52.218;9.884;2023-07-02T08:29:40;18.40;99.90
16879;DHT22;8556;52.218;9.884;2023-07-02T08:32:07;18.40;99.90
16879;DHT22;8556;52.218;9.884;2023-07-02T08:34:34;18.50;99.90
16879;DHT22;8556;52.218;9.884;2023-07-02T08:37:01;18.20;99.90
16879;DHT22;8556;52.218;9.884;2023-07-02T08:39:28;17.90;99.90
16879;DHT22;8556;52.218;9.884;2023-07-02T08:41:55;17.90;99.90
16879;DHT22;8556;52.218;9.884;2023-07-02T08:44:22;18.00;99.90
16879;DHT22;8556;52.218;9.884;2023-07-02T08:46:50;18.40;99.90
16879;DHT22;8556;52.218;9.884;2023-07-02T08:49:18;18.50;99.90
16879;DHT22;8556;52.218;9.884;2023-07-02T08:51:46;18.10;99.90
16879;DHT22;8556;52.218;9.884;2023-07-02T08:54:34;18.00;99.90
16879;DHT22;8556;52.218;9.884;2023-07-02T08:57:20;17.80;99.90
16879;DHT22;8556;52.218;9.884;2023-07-02T09:00:11;17.70;99.90
16879;DHT22;8556;52.218;9.884;2023-07-02T09:02:56;18.30;99.90
16879;DHT22;8556;52.218;9.884;2023-07-02T09:05:33;18.40;99.90
16879;DHT22;8556;52.218;9.884;2023-07-02T09:08:11;18.50;99.90
16879;DHT22;8556;52.218;9.884;2023-07-02T09:10:49;18.40;99.90
16879;DHT22;8556;52.218;9.884;2023-07-02T09:13:19;18.40;99.90
16879;DHT22;8556;52.218;9.884;2023-07-02T09:15:46;18.40;99.90
16879;DHT22;8556;52.218;9.884;2023-07-02T09:18:22;19.20;99.90
16879;DHT22;8556;52.218;9.884;2023-07-02T09:20:58;19.70;99.90
16879;DHT22;8556;52.218;9.884;2023-07-02T09:23:35;20.00;99.90
16879;DHT22;8556;52.218;9.884;2023-07-02T09:26:06;20.00;99.90
16879;DHT22;8556;52.218;9.884;2023-07-02T09:28:39;19.40;99.90
16879;DHT22;8556;52.218;9.884;2023-07-02T09:31:08;19.40;99.90
16879;DHT22;8556;52.218;9.884;2023-07-02T09:33:41;19.80;99.90
16879;DHT22;8556;52.218;9.884;2023-07-02T09:36:22;20.30;99.90
16879;DHT22;8556;52.218;9.884;2023-07-02T09:38:59;20.50;99.90
16879;DHT22;8556;52.218;9.884;2023-07-02T09:41:39;20.70;99.90
16879;DHT22;8556;52.218;9.884;2023-07-02T09:44:19;20.50;99.90
16879;DHT22;8556;52.218;9.884;2023-07-02T09:47:16;20.20;99.90
16879;DHT22;8556;52.218;9.884;2023-07-02T09:53:00;21.00;99.90
16879;DHT22;8556;52.218;9.884;2023-07-02T09:55:49;21.40;99.90
16879;DHT22;8556;52.218;9.884;2023-07-02T09:58:31;21.30;99.90
16879;DHT22;8556;52.218;9.884;2023-07-02T10:01:00;21.90;99.90
16879;DHT22;8556;52.218;9.884;2023-07-02T10:03:32;21.70;99.90
16879;DHT22;8556;52.218;9.884;2023-07-02T10:06:05;21.40;99.90
16879;DHT22;8556;52.218;9.884;2023-07-02T10:08:33;21.60;99.90
16879;DHT22;8556;52.218;9.884;2023-07-02T10:11:07;21.60;99.90
16879;DHT22;8556;52.218;9.884;2023-07-02T10:13:38;21.40;99.90
16879;DHT22;8556;52.218;9.884;2023-07-02T10:16:15;21.00;99.90
16879;DHT22;8556;52.218;9.884;2023-07-02T10:18:42;21.50;99.90
16879;DHT22;8556;52.218;9.884;2023-07-02T10:21:22;22.30;99.90
16879;DHT22;8556;52.218;9.884;2023-07-02T10:24:21;21.80;99.90
16879;DHT22;8556;52.218;9.884;2023-07-02T10:27:01;22.20;99.90
16879;DHT22;8556;52.218;9.884;2023-07-02T10:30:07;22.20;99.90
16879;DHT22;8556;52.218;9.884;2023-07-02T10:33:15;22.50;99.90
16879;DHT22;8556;52.218;9.884;2023-07-02T10:36:04;22.30;99.90
16879;DHT22;8556;52.218;9.884;2023-07-02T10:39:00;22.00;99.90
16879;DHT22;8556;52.218;9.884;2023-07-02T10:41:35;22.40;99.90
16879;DHT22;8556;52.218;9.884;2023-07-02T10:44:16;22.60;99.90
16879;DHT22;8556;52.218;9.884;2023-07-02T10:46:57;22.80;99.90
16879;DHT22;8556;52.218;9.884;2023-07-02T10:49:33;22.90;99.90
16879;DHT22;8556;52.218;9.884;2023-07-02T10:52:12;22.80;99.90
16879;DHT22;8556;52.218;9.884;2023-07-02T10:54:42;22.80;99.90
16879;DHT22;8556;52.218;9.884;2023-07-02T10:57:13;22.40;99.90
16879;DHT22;8556;52.218;9.884;2023-07-02T10:59:46;22.70;99.90
16879;DHT22;8556;52.218;9.884;2023-07-02T11:02:34;22.30;99.90
16879;DHT22;8556;52.218;9.884;2023-07-02T11:05:01;22.10;99.90
16879;DHT22;8556;52.218;9.884;2023-07-02T11:07:37;21.90;99.90
16879;DHT22;8556;52.218;9.884;2023-07-02T11:10:40;22.00;99.90
16879;DHT22;8556;52.218;9.884;2023-07-02T11:13:13;22.10;99.90
16879;DHT22;8556;52.218;9.884;2023-07-02T11:15:54;22.00;99.90
16879;DHT22;8556;52.218;9.884;2023-07-02T11:18:39;21.70;99.90
16879;DHT22;8556;52.218;9.884;2023-07-02T11:21:10;21.30;99.90
16879;DHT22;8556;52.218;9.884;2023-07-02T11:23:37;21.20;99.90
16879;DHT22;8556;52.218;9.884;2023-07-02T11:26:06;21.50;99.90
16879;DHT22;8556;52.218;9.884;2023-07-02T11:28:33;21.30;99.90
16879;DHT22;8556;52.218;9.884;2023-07-02T11:31:01;21.10;99.90
16879;DHT22;8556;52.218;9.884;2023-07-02T11:33:37;21.10;99.90
16879;DHT22;8556;52.218;9.884;2023-07-02T11:36:21;21.20;99.90
16879;DHT22;8556;52.218;9.884;2023-07-02T11:39:02;20.80;99.90
16879;DHT22;8556;52.218;9.884;2023-07-02T11:41:56;21.20;99.90
16879;DHT22;8556;52.218;9.884;2023-07-02T11:44:40;21.70;99.90
16879;DHT22;8556;52.218;9.884;2023-07-02T11:47:24;21.90;99.90
16879;DHT22;8556;52.218;9.884;2023-07-02T11:50:04;21.70;99.90
16879;DHT22;8556;52.218;9.884;2023-07-02T11:53:00;21.20;99.90
16879;DHT22;8556;52.218;9.884;2023-07-02T11:55:36;20.80;99.90
16879;DHT22;8556;52.218;9.884;2023-07-02T11:58:07;20.70;99.90
16879;DHT22;8556;52.218;9.884;2023-07-02T12:00:51;20.80;99.90
16879;DHT22;8556;52.218;9.884;2023-07-02T12:03:26;21.20;99.90
16879;DHT22;8556;52.218;9.884;2023-07-02T12:05:56;22.10;99.90
16879;DHT22;8556;52.218;9.884;2023-07-02T12:08:48;22.30;99.90
16879;DHT22;8556;52.218;9.884;2023-07-02T12:11:28;22.50;99.90
16879;DHT22;8556;52.218;9.884;2023-07-02T12:14:14;22.40;99.90
16879;DHT22;8556;52.218;9.884;2023-07-02T12:16:46;21.50;99.90
16879;DHT22;8556;52.218;9.884;2023-07-02T12:19:25;21.20;99.90
16879;DHT22;8556;52.218;9.884;2023-07-02T12:22:19;21.40;99.90
16879;DHT22;8556;52.218;9.884;2023-07-02T12:24:51;21.70;99.90
16879;DHT22;8556;52.218;9.884;2023-07-02T12:27:36;21.80;99.90
16879;DHT22;8556;52.218;9.884;2023-07-02T12:30:33;22.00;99.90
16879;DHT22;8556;52.218;9.884;2023-07-02T12:33:32;22.70;99.90
16879;DHT22;8556;52.218;9.884;2023-07-02T12:36:07;22.30;99.90
16879;DHT22;8556;52.218;9.884;2023-07-02T12:38:51;21.90;99.90
16879;DHT22;8556;52.218;9.884;2023-07-02T12:41:34;21.70;99.90
16879;DHT22;8556;52.218;9.884;2023-07-02T12:50:31;22.00;99.90
16879;DHT22;8556;52.218;9.884;2023-07-02T12:53:20;22.20;99.90
16879;DHT22;8556;52.218;9.884;2023-07-02T12:55:58;22.10;99.90
16879;DHT22;8556;52.218;9.884;2023-07-02T12:58:51;21.90;99.90
16879;DHT22;8556;52.218;9.884;2023-07-02T13:01:37;22.50;99.90
16879;DHT22;8556;52.218;9.884;2023-07-02T13:07:11;22.90;99.90
16879;DHT22;8556;52.218;9.884;2023-07-02T13:09:44;22.80;99.90
16879;DHT22;8556;52.218;9.884;2023-07-02T13:12:21;22.70;99.90
16879;DHT22;8556;52.218;9.884;2023-07-02T13:14:48;22.50;99.90
16879;DHT22;8556;52.218;9.884;2023-07-02T13:17:24;23.00;99.90
16879;DHT22;8556;52.218;9.884;2023-07-02T13:19:51;23.10;99.90
16879;DHT22;8556;52.218;9.884;2023-07-02T13:22:23;22.80;99.90
16879;DHT22;8556;52.218;9.884;2023-07-02T13:25:24;22.60;99.90
16879;DHT22;8556;52.218;9.884;2023-07-02T13:27:53;22.40;99.90
16879;DHT22;8556;52.218;9.884;2023-07-02T13:30:27;22.30;99.90
16879;DHT22;8556;52.218;9.884;2023-07-02T13:33:22;22.20;99.90
16879;DHT22;8556;52.218;9.884;2023-07-02T13:36:12;22.20;99.90
16879;DHT22;8556;52.218;9.884;2023-07-02T13:48:38;23.20;99.90
16879;DHT22;8556;52.218;9.884;2023-07-02T13:51:47;23.50;99.90
16879;DHT22;8556;52.218;9.884;2023-07-02T13:54:23;23.50;99.90
16879;DHT22;8556;52.218;9.884;2023-07-02T13:56:55;23.30;99.90
16879;DHT22;8556;52.218;9.884;2023-07-02T13:59:33;23.30;99.90
16879;DHT22;8556;52.218;9.884;2023-07-02T14:02:06;22.80;99.90
16879;DHT22;8556;52.218;9.884;2023-07-02T14:07:24;22.80;99.90
16879;DHT22;8556;52.218;9.884;2023-07-02T14:09:51;22.50;99.90
16879;DHT22;8556;52.218;9.884;2023-07-02T14:12:18;22.80;99.90
16879;DHT22;8556;52.218;9.884;2023-07-02T14:14:46;23.00;99.90
16879;DHT22;8556;52.218;9.884;2023-07-02T14:17:14;23.00;99.90
16879;DHT22;8556;52.218;9.884;2023-07-02T14:19:43;22.70;99.90
16879;DHT22;8556;52.218;9.884;2023-07-02T14:22:10;22.70;99.90
16879;DHT22;8556;52.218;9.884;2023-07-02T14:24:38;23.00;99.90
16879;DHT22;8556;52.218;9.884;2023-07-02T14:27:05;22.90;99.90
16879;DHT22;8556;52.218;9.884;2023-07-02T14:29:32;22.80;99.90
16879;DHT22;8556;52.218;9.884;2023-07-02T14:32:00;22.80;99.90
16879;DHT22;8556;52.218;9.884;2023-07-02T14:34:27;22.80;99.90
16879;DHT22;8556;52.218;9.884;2023-07-02T14:36:55;22.90;99.90
16879;DHT22;8556;52.218;9.884;2023-07-02T14:39:22;23.30;99.90
16879;DHT22;8556;52.218;9.884;2023-07-02T14:41:49;23.30;99.90
16879;DHT22;8556;52.218;9.884;2023-07-02T14:44:16;23.10;99.90
16879;DHT22;8556;52.218;9.884;2023-07-02T14:46:43;22.70;99.90
16879;DHT22;8556;52.218;9.884;2023-07-02T14:49:11;22.90;99.90
16879;DHT22;8556;52.218;9.884;2023-07-02T14:51:38;23.00;99.90
16879;DHT22;8556;52.218;9.884;2023-07-02T14:54:05;22.90;99.90
16879;DHT22;8556;52.218;9.884;2023-07-02T14:56:32;22.90;99.90
16879;DHT22;8556;52.218;9.884;2023-07-02T14:59:00;23.10;99.90
16879;DHT22;8556;52.218;9.884;2023-07-02T15:01:27;22.80;99.90
16879;DHT22;8556;52.218;9.884;2023-07-02T15:03:54;22.90;99.90
16879;DHT22;8556;52.218;9.884;2023-07-02T15:06:23;23.00;99.90
16879;DHT22;8556;52.218;9.884;2023-07-02T15:08:49;22.60;99.90
16879;DHT22;8556;52.218;9.884;2023-07-02T15:11:17;22.70;99.90
16879;DHT22;8556;52.218;9.884;2023-07-02T15:13:44;22.70;99.90
16879;DHT22;8556;52.218;9.884;2023-07-02T15:16:12;22.50;99.90
16879;DHT22;8556;52.218;9.884;2023-07-02T15:18:39;22.70;99.90
16879;DHT22;8556;52.218;9.884;2023-07-02T15:21:06;22.70;99.90
16879;DHT22;8556;52.218;9.884;2023-07-02T15:23:34;22.60;99.90
16879;DHT22;8556;52.218;9.884;2023-07-02T15:26:03;22.60;99.90
16879;DHT22;8556;52.218;9.884;2023-07-02T15:28:30;22.40;99.90
16879;DHT22;8556;52.218;9.884;2023-07-02T15:30:59;21.80;99.90
16879;DHT22;8556;52.218;9.884;2023-07-02T15:33:28;21.60;99.90
16879;DHT22;8556;52.218;9.884;2023-07-02T15:35:55;21.70;99.90
16879;DHT22;8556;52.218;9.884;2023-07-02T15:38:24;21.90;99.90
16879;DHT22;8556;52.218;9.884;2023-07-02T15:41:05;22.10;99.90
16879;DHT22;8556;52.218;9.884;2023-07-02T15:43:32;22.30;99.90
16879;DHT22;8556;52.218;9.884;2023-07-02T15:45:59;22.30;99.90
16879;DHT22;8556;52.218;9.884;2023-07-02T15:48:25;22.30;99.90
16879;DHT22;8556;52.218;9.884;2023-07-02T15:50:52;22.50;99.90
16879;DHT22;8556;52.218;9.884;2023-07-02T15:53:19;22.60;99.90
16879;DHT22;8556;52.218;9.884;2023-07-02T15:55:46;22.30;99.90
16879;DHT22;8556;52.218;9.884;2023-07-02T15:58:15;22.10;99.90
16879;DHT22;8556;52.218;9.884;2023-07-02T16:00:41;22.00;99.90
16879;DHT22;8556;52.218;9.884;2023-07-02T16:03:08;22.00;99.90
16879;DHT22;8556;52.218;9.884;2023-07-02T16:05:36;21.90;99.90
16879;DHT22;8556;52.218;9.884;2023-07-02T16:08:04;22.00;99.90
16879;DHT22;8556;52.218;9.884;2023-07-02T16:10:31;22.00;99.90
16879;DHT22;8556;52.218;9.884;2023-07-02T16:12:58;21.70;99.90
16879;DHT22;8556;52.218;9.884;2023-07-02T16:15:26;21.40;99.90
16879;DHT22;8556;52.218;9.884;2023-07-02T16:17:53;21.50;99.90
16879;DHT22;8556;52.218;9.884;2023-07-02T16:20:19;21.70;99.90
16879;DHT22;8556;52.218;9.884;2023-07-02T16:22:46;21.70;99.90
16879;DHT22;8556;52.218;9.884;2023-07-02T16:25:13;21.80;99.90
16879;DHT22;8556;52.218;9.884;2023-07-02T16:27:40;21.60;99.90
16879;DHT22;8556;52.218;9.884;2023-07-02T16:30:08;21.50;99.90
16879;DHT22;8556;52.218;9.884;2023-07-02T16:32:36;21.70;99.90